Naylor, MO (63953)

6:58 AM CDT on August 30, 2015 (GMT -0500)
Current River Doniphan | | Change Station
CLOSE
Current Station
Personal Weather Station
Location: Doniphan, MO
Elevation: 305 ft
Nearby Weather Stations

Elev 305 ft 36.55 °N, 90.83 °W | Updated 33 seconds ago

Partly Cloudy
Partly Cloudy
68.2 °F
Feels Like 68.2 °F
N
0.0
Wind Variable Wind from NNW
Gusts 0.0 mph

Today
High -- | Low -- °F
--% Chance of Precip.
Yesterday
High -- | Low -- °F
Precip. -- in
6:31 AM 7:33 PM
Full, 99% visible
Pressure 30.01 in
Visibility 7.0 miles
Clouds Clear
Dew Point 68 °F
Humidity 99%
Rainfall 0.00 in
Snow Depth Not available.
UV 0.0 out of 12
Pollen 10.10 out of 12
Air Quality Not available.
Flu Activity Not available.
METAR KPOF 301153Z AUTO 34003KT 7SM CLR 19/18 A3002 RMK AO2 SLP162 T01890178 10228 20183 53006
Pressure 30.01 in
Visibility 7.0 miles
Clouds Clear
Dew Point 68 °F
Humidity 99%
Rainfall 0.00 in
Snow Depth Not available.
UV 0.0 out of 12
Pollen 10.10 out of 12
Air Quality Not available.
Flu Activity Not available.
METAR KPOF 301153Z AUTO 34003KT 7SM CLR 19/18 A3002 RMK AO2 SLP162 T01890178 10228 20183 53006

10-Day Weather Forecast

×

Almanac

Astronomy

Aug. 30, 2015 Rise Set
Actual Time
Civil Twilight
Nautical Twilight
Astronomical Twilight
Moon
Length of Visible Light
Length of Day
Tomorrow will be .
, % of the Moon is Illuminated

Today's Extremes

State Highs State Lows

Community

WunderPhotos

Upload Photos

1,850,930 photos uploaded!

WunderBlogs® & News

Nearby

Air Quality

  Air Quality AQ Index Pollutant
Not available.

Snow Depth

Station Depth Elevation

Earthquake Activity

City Distance Mag. Time & Date
Minimum magnitude displayed is 2.5.

Coastal Water Temperatures

Place Temperature

Stations

Nearby Weather Stations

Station Location Temp. Windchill Dew Point Humidity Wind Precip. Elev Updated Type